Terminal Aerodrome Forecast
Issued by NWS

Home | Current Version | Previous Version | Text Only | Print | Product List | Glossary On
Versions: 1 2 3 4 5 6 7 8 9 10 11 12 13 14 15 16 17 18 19 20
000
FTUS45 KBOU 222333
TAFAPA
TAF
KAPA 222333Z 2300/2324 03006KT P6SM FEW090 SCT140 SCT220
     FM230300 20008KT P6SM FEW090 SCT140 BKN220
     FM230600 24008KT P6SM FEW140 BKN220
     FM231800 36010KT P6SM FEW140 BKN220
     FM232000 03008KT P6SM SCT080 BKN140 PROB30 2321/2324 VRB15G30KT
      -TSRA BKN070CB=

USA.gov is the U.S. government's official web portal to all federal, state and local government web resources and services.